createdAt,value
2023-07-11T00:01:15.154Z,5.70
2023-07-11T00:03:42.610Z,5.70
2023-07-11T00:06:16.065Z,5.68
2023-07-11T00:08:43.404Z,6.35
2023-07-11T00:11:12.445Z,5.20
2023-07-11T00:13:41.099Z,5.55
2023-07-11T00:16:12.340Z,6.15
2023-07-11T00:18:40.639Z,6.13
2023-07-11T00:21:08.261Z,6.40
2023-07-11T00:23:35.811Z,5.50
2023-07-11T00:26:04.149Z,6.28
2023-07-11T00:28:32.019Z,5.97
2023-07-11T00:31:00.069Z,6.28
2023-07-11T00:33:27.456Z,5.90
2023-07-11T00:35:55.257Z,5.90
2023-07-11T00:38:23.058Z,5.75
2023-07-11T00:40:52.423Z,5.72
2023-07-11T00:43:21.843Z,5.28
2023-07-11T00:46:04.557Z,5.75
2023-07-11T00:48:38.858Z,6.03
2023-07-11T00:51:09.798Z,5.05
2023-07-11T00:53:40.165Z,5.68
2023-07-11T00:56:13.409Z,5.50
2023-07-11T00:58:43.381Z,5.80
2023-07-11T01:01:11.812Z,5.20
2023-07-11T01:03:39.540Z,5.70
2023-07-11T01:06:14.742Z,5.15
2023-07-11T01:08:45.089Z,6.03
2023-07-11T01:11:12.653Z,5.28
2023-07-11T01:13:39.999Z,6.20
2023-07-11T01:16:07.922Z,5.18
2023-07-11T01:18:36.289Z,5.07
2023-07-11T01:21:05.623Z,5.20
2023-07-11T01:23:34.581Z,5.43
2023-07-11T01:26:08.241Z,5.28
2023-07-11T01:28:35.876Z,5.32
2023-07-11T01:31:05.447Z,4.93
2023-07-11T01:33:33.921Z,5.35
2023-07-11T01:36:02.688Z,5.00
2023-07-11T01:38:30.604Z,5.40
2023-07-11T01:40:57.970Z,5.00
2023-07-11T01:43:25.322Z,5.38
2023-07-11T01:45:52.700Z,4.55
2023-07-11T01:48:20.314Z,4.85
2023-07-11T01:50:49.647Z,5.55
2023-07-11T01:53:17.280Z,4.95
2023-07-11T01:55:54.642Z,4.40
2023-07-11T01:58:22.105Z,4.93
2023-07-11T02:00:49.513Z,5.03
2023-07-11T02:03:16.922Z,5.13
2023-07-11T02:05:44.284Z,4.80
2023-07-11T02:08:11.584Z,5.40
2023-07-11T02:10:41.666Z,3.88
2023-07-11T02:13:09.407Z,5.40
2023-07-11T02:15:41.617Z,5.25
2023-07-11T02:18:09.384Z,4.95
2023-07-11T02:20:45.149Z,4.32
2023-07-11T02:23:14.408Z,4.60
2023-07-11T02:25:42.697Z,5.15
2023-07-11T02:28:10.033Z,4.63
2023-07-11T02:30:37.501Z,4.68
2023-07-11T02:33:05.105Z,4.85
2023-07-11T02:35:32.436Z,5.20
2023-07-11T02:38:01.692Z,5.57
2023-07-11T02:40:29.154Z,4.97
2023-07-11T02:42:56.608Z,4.80
2023-07-11T02:45:24.523Z,4.85
2023-07-11T02:47:51.989Z,4.85
2023-07-11T02:50:19.390Z,5.32
2023-07-11T02:52:48.516Z,4.82
2023-07-11T02:55:15.844Z,4.53
2023-07-11T02:57:44.476Z,5.30
2023-07-11T03:00:12.623Z,5.18
2023-07-11T03:02:40.054Z,5.35
2023-07-11T03:05:09.468Z,5.35
2023-07-11T03:07:37.201Z,5.28
2023-07-11T03:10:04.861Z,5.15
2023-07-11T03:12:32.215Z,5.38
2023-07-11T03:15:00.672Z,6.00
2023-07-11T03:17:30.225Z,6.07
2023-07-11T03:19:57.608Z,5.50
2023-07-11T03:22:25.031Z,4.82
2023-07-11T03:24:52.337Z,5.68
2023-07-11T03:27:19.756Z,5.28
2023-07-11T03:29:47.103Z,5.32
2023-07-11T03:32:15.269Z,5.28
2023-07-11T03:34:53.096Z,5.88
2023-07-11T03:37:22.069Z,5.18
2023-07-11T03:39:49.438Z,4.75
2023-07-11T03:42:16.826Z,4.82
2023-07-11T03:44:44.210Z,5.07
2023-07-11T03:47:11.747Z,5.70
2023-07-11T03:49:39.054Z,5.47
2023-07-11T03:52:06.627Z,4.95
2023-07-11T03:54:33.982Z,4.55
2023-07-11T03:57:01.607Z,4.10
2023-07-11T03:59:29.105Z,4.40
2023-07-11T04:01:56.473Z,4.78
2023-07-11T04:04:23.799Z,5.25
2023-07-11T04:06:51.140Z,4.70
2023-07-11T04:09:18.485Z,4.43
2023-07-11T04:11:45.774Z,5.07
2023-07-11T04:14:13.095Z,4.63
2023-07-11T04:16:40.479Z,4.80
2023-07-11T04:19:07.841Z,4.65
2023-07-11T04:21:36.484Z,4.45
2023-07-11T04:24:04.060Z,4.30
2023-07-11T04:26:31.339Z,4.30
2023-07-11T04:28:58.650Z,4.20
2023-07-11T04:31:27.790Z,4.32
2023-07-11T04:33:55.098Z,4.25
2023-07-11T04:36:22.563Z,5.00
2023-07-11T04:38:51.093Z,4.78
2023-07-11T04:41:20.239Z,4.78
2023-07-11T04:43:47.528Z,5.30
2023-07-11T04:46:15.029Z,4.30
2023-07-11T04:48:42.492Z,4.78
2023-07-11T04:51:12.236Z,3.92
2023-07-11T04:53:40.448Z,4.75
2023-07-11T04:56:09.994Z,4.30
2023-07-11T04:58:37.832Z,4.97
2023-07-11T05:01:11.998Z,4.32
2023-07-11T05:03:39.975Z,4.43
2023-07-11T05:06:09.001Z,4.68
2023-07-11T05:08:36.640Z,3.60
2023-07-11T05:11:08.460Z,4.22
2023-07-11T05:13:36.400Z,4.38
2023-07-11T05:16:07.191Z,4.10
2023-07-11T05:18:44.011Z,3.75
2023-07-11T05:21:14.453Z,4.15
2023-07-11T05:23:41.885Z,4.10
2023-07-11T05:26:09.766Z,4.32
2023-07-11T05:28:37.483Z,4.25
2023-07-11T05:31:07.238Z,4.30
2023-07-11T05:33:35.071Z,4.35
2023-07-11T05:36:29.162Z,3.88
2023-07-11T05:38:56.616Z,4.10
2023-07-11T05:41:24.161Z,3.97
2023-07-11T05:43:51.496Z,3.60
2023-07-11T05:46:18.857Z,3.92
2023-07-11T05:48:46.247Z,4.18
2023-07-11T05:51:16.450Z,4.63
2023-07-11T05:53:44.723Z,4.22
2023-07-11T05:56:12.192Z,4.57
2023-07-11T05:58:40.730Z,4.28
2023-07-11T06:01:11.641Z,3.90
2023-07-11T06:03:42.116Z,4.07
2023-07-11T06:06:12.582Z,3.90
2023-07-11T06:08:40.011Z,4.00
2023-07-11T06:11:07.793Z,4.82
2023-07-11T06:13:38.305Z,3.83
2023-07-11T06:16:13.834Z,3.60
2023-07-11T06:18:41.306Z,3.55
2023-07-11T06:21:10.351Z,3.92
2023-07-11T06:23:38.078Z,3.65
2023-07-11T06:26:06.653Z,3.80
2023-07-11T06:28:36.210Z,4.97
2023-07-11T06:31:07.807Z,4.18
2023-07-11T06:33:36.195Z,3.72
2023-07-11T06:36:05.569Z,3.65
2023-07-11T06:38:33.088Z,4.07
2023-07-11T06:41:01.003Z,4.35
2023-07-11T06:43:29.797Z,4.07
2023-07-11T06:45:58.900Z,3.80
2023-07-11T06:48:29.404Z,3.85
2023-07-11T06:51:00.258Z,3.65
2023-07-11T06:53:30.443Z,4.22
2023-07-11T06:55:58.283Z,4.47
2023-07-11T06:58:25.856Z,4.35
2023-07-11T07:01:01.295Z,3.75
2023-07-11T07:03:29.532Z,3.83
2023-07-11T07:05:59.409Z,4.00
2023-07-11T07:08:27.831Z,4.07
2023-07-11T07:10:55.463Z,4.25
2023-07-11T07:13:24.463Z,4.35
2023-07-11T07:16:00.103Z,3.97
2023-07-11T07:18:32.150Z,5.18
2023-07-11T07:20:59.676Z,4.63
2023-07-11T07:23:28.163Z,3.85
2023-07-11T07:26:00.327Z,5.03
2023-07-11T07:28:29.740Z,4.38
2023-07-11T07:30:58.727Z,5.28
2023-07-11T07:33:27.522Z,4.43
2023-07-11T07:36:02.638Z,5.30
2023-07-11T07:38:30.290Z,4.97
2023-07-11T07:41:01.691Z,5.35
2023-07-11T07:43:30.707Z,4.55
2023-07-11T07:45:59.673Z,4.97
2023-07-11T07:48:27.422Z,4.53
2023-07-11T07:51:04.012Z,4.40
2023-07-11T07:53:31.739Z,4.28
2023-07-11T07:56:14.215Z,4.80
2023-07-11T07:58:44.620Z,4.30
2023-07-11T08:01:14.219Z,4.13
2023-07-11T08:03:42.287Z,3.75
2023-07-11T08:06:16.112Z,4.45
2023-07-11T08:08:46.681Z,3.90
2023-07-11T08:11:16.008Z,4.38
2023-07-11T08:16:28.557Z,4.32
2023-07-11T08:18:57.773Z,4.60
2023-07-11T08:21:25.365Z,4.82
2023-07-11T08:23:52.769Z,4.55
2023-07-11T08:26:21.383Z,4.70
2023-07-11T08:28:53.584Z,5.03
2023-07-11T08:31:22.300Z,5.47
2023-07-11T08:33:50.190Z,5.82
2023-07-11T08:36:17.671Z,5.40
2023-07-11T08:38:46.862Z,5.68
2023-07-11T08:41:49.380Z,6.00
2023-07-11T08:44:23.246Z,6.32
2023-07-11T08:46:59.447Z,6.47
2023-07-11T08:49:34.350Z,6.82
2023-07-11T08:52:03.437Z,6.45
2023-07-11T08:54:38.851Z,7.93
2023-07-11T08:57:10.729Z,7.05
2023-07-11T09:00:01.298Z,6.65
2023-07-11T09:03:13.084Z,7.80
2023-07-11T09:05:45.096Z,7.88
2023-07-11T09:08:22.064Z,7.93
2023-07-11T09:10:58.067Z,8.00
2023-07-11T09:13:28.038Z,7.88
2023-07-11T09:16:00.633Z,8.07
2023-07-11T09:18:44.158Z,7.80
2023-07-11T09:21:39.012Z,8.40
2023-07-11T09:24:32.492Z,8.20
2023-07-11T09:27:23.050Z,7.40
2023-07-11T09:29:51.453Z,7.90
2023-07-11T09:32:19.886Z,7.20
2023-07-11T09:34:50.554Z,7.53
2023-07-11T09:37:35.889Z,7.72
2023-07-11T09:40:12.398Z,7.38
2023-07-11T09:42:48.774Z,7.78
2023-07-11T09:45:23.979Z,8.60
2023-07-11T09:48:07.170Z,8.70
2023-07-11T09:51:14.185Z,8.18
2023-07-11T09:53:46.527Z,8.05
2023-07-11T09:56:16.964Z,8.65
2023-07-11T09:58:52.105Z,8.00
2023-07-11T10:01:34.044Z,8.85
2023-07-11T10:04:04.476Z,9.20
2023-07-11T10:06:47.593Z,9.45
2023-07-11T10:09:38.939Z,9.07
2023-07-11T10:12:15.839Z,8.52
2023-07-11T10:14:46.678Z,9.40
2023-07-11T10:17:24.073Z,8.80
2023-07-11T10:20:03.557Z,9.15
2023-07-11T10:22:37.679Z,8.40
2023-07-11T10:25:19.810Z,7.65
2023-07-11T10:27:55.811Z,9.05
2023-07-11T10:30:30.888Z,9.50
2023-07-11T10:33:22.207Z,8.77
2023-07-11T10:36:20.595Z,7.95
2023-07-11T10:38:56.461Z,8.93
2023-07-11T10:41:30.369Z,8.13
2023-07-11T10:44:00.464Z,8.13
2023-07-11T10:46:43.931Z,8.60
2023-07-11T10:49:17.240Z,7.65
2023-07-11T10:51:57.184Z,8.30
2023-07-11T10:54:39.566Z,7.78
2023-07-11T10:57:17.138Z,9.60
2023-07-11T10:59:46.402Z,8.38
2023-07-11T11:02:20.509Z,7.97
2023-07-11T11:05:26.166Z,8.30
2023-07-11T11:08:02.132Z,7.75
2023-07-11T11:10:52.426Z,7.50
2023-07-11T11:13:43.794Z,8.15
2023-07-11T11:19:16.567Z,8.98
2023-07-11T11:22:16.071Z,8.95
2023-07-11T11:25:02.578Z,8.60
2023-07-11T11:28:04.741Z,8.55
2023-07-11T11:31:00.258Z,8.57
2023-07-11T11:33:49.157Z,7.82
2023-07-11T11:36:30.331Z,7.60
2023-07-11T11:39:20.040Z,7.78
2023-07-11T11:41:52.285Z,7.55
2023-07-11T11:47:00.521Z,7.93
2023-07-11T11:52:01.281Z,8.10
2023-07-11T11:54:37.303Z,7.75
2023-07-11T11:57:05.133Z,7.18
2023-07-11T11:59:32.983Z,8.10
2023-07-11T12:02:17.474Z,7.03
2023-07-11T12:05:02.412Z,7.13
2023-07-11T12:07:33.202Z,7.82
2023-07-11T12:10:09.925Z,7.47
2023-07-11T12:12:37.349Z,7.60
2023-07-11T12:15:13.849Z,7.57
2023-07-11T12:17:41.362Z,7.82
2023-07-11T12:20:08.765Z,7.47
2023-07-11T12:22:39.170Z,6.80
2023-07-11T12:25:06.500Z,7.35
2023-07-11T12:27:33.770Z,7.30
2023-07-11T12:30:26.679Z,7.32
2023-07-11T12:32:56.133Z,7.85
2023-07-11T12:35:26.063Z,7.43
2023-07-11T12:38:02.390Z,7.45
2023-07-11T12:40:38.981Z,7.78
2023-07-11T12:43:33.999Z,6.90
2023-07-11T12:46:07.415Z,7.03
2023-07-11T12:48:44.914Z,6.90
2023-07-11T12:51:27.183Z,7.75
2023-07-11T12:54:01.580Z,7.13
2023-07-11T12:56:30.486Z,7.05
2023-07-11T12:58:57.834Z,7.10
2023-07-11T13:01:25.893Z,7.28
2023-07-11T13:03:53.400Z,6.65
2023-07-11T13:06:31.040Z,6.72
2023-07-11T13:08:59.125Z,7.53
2023-07-11T13:11:29.518Z,7.35
2023-07-11T13:13:57.620Z,7.45
2023-07-11T13:16:34.120Z,7.10
2023-07-11T13:19:02.742Z,7.15
2023-07-11T13:21:30.266Z,7.20
2023-07-11T13:24:00.432Z,6.60
2023-07-11T13:26:30.464Z,8.00
2023-07-11T13:29:09.980Z,7.50
2023-07-11T13:31:38.918Z,7.82
2023-07-11T13:34:27.580Z,7.85
2023-07-11T13:36:56.641Z,7.40
2023-07-11T13:39:29.640Z,7.97
2023-07-11T13:41:59.585Z,7.13
2023-07-11T13:44:26.870Z,7.50
2023-07-11T13:46:54.363Z,7.03
2023-07-11T13:49:36.520Z,7.72
2023-07-11T13:52:04.972Z,8.50
2023-07-11T13:54:39.158Z,7.53
2023-07-11T13:57:07.384Z,7.30
2023-07-11T13:59:38.129Z,7.05
2023-07-11T14:02:14.921Z,7.40
2023-07-11T14:04:42.692Z,7.97
2023-07-11T14:07:10.480Z,6.70
2023-07-11T14:09:38.347Z,7.13
2023-07-11T14:12:06.871Z,7.10
2023-07-11T14:14:40.153Z,6.90
2023-07-11T14:17:16.123Z,7.60
2023-07-11T14:19:43.510Z,7.40
2023-07-11T14:22:21.585Z,7.57
2023-07-11T14:24:50.493Z,6.80
2023-07-11T14:27:18.959Z,6.63
2023-07-11T14:29:46.658Z,7.05
2023-07-11T14:32:20.910Z,7.57
2023-07-11T14:34:48.309Z,7.47
2023-07-11T14:37:17.221Z,7.22
2023-07-11T14:39:45.406Z,7.22
2023-07-11T14:42:25.113Z,6.50
2023-07-11T14:44:52.556Z,6.40
2023-07-11T14:47:20.091Z,7.47
2023-07-11T14:49:47.537Z,7.07
2023-07-11T14:52:27.033Z,6.97
2023-07-11T14:59:56.083Z,8.30
2023-07-11T15:02:30.367Z,7.70
2023-07-11T15:09:59.046Z,8.50
2023-07-11T15:17:28.489Z,8.82
2023-07-11T15:19:56.063Z,8.82
2023-07-11T15:22:26.774Z,8.95
2023-07-11T15:24:55.219Z,9.18
2023-07-11T15:27:24.329Z,9.70
2023-07-11T15:29:51.595Z,8.98
2023-07-11T15:32:25.360Z,8.90
2023-07-11T15:34:53.910Z,8.13
2023-07-11T15:37:21.231Z,8.75
2023-07-11T15:39:48.487Z,8.77
2023-07-11T15:42:27.259Z,8.35
2023-07-11T15:44:57.544Z,7.97
2023-07-11T15:47:25.023Z,8.68
2023-07-11T15:49:52.423Z,8.45
2023-07-11T15:52:21.331Z,8.07
2023-07-11T15:54:48.931Z,8.93
2023-07-11T15:57:23.099Z,7.18
2023-07-11T15:59:51.223Z,7.78
2023-07-11T16:02:20.764Z,7.85
2023-07-11T16:04:48.142Z,7.63
2023-07-11T16:07:18.833Z,8.27
2023-07-11T16:09:47.612Z,7.55
2023-07-11T16:12:17.565Z,7.90
2023-07-11T16:14:45.957Z,7.88
2023-07-11T16:17:19.226Z,7.45
2023-07-11T16:19:49.392Z,7.30
2023-07-11T16:22:19.578Z,8.52
2023-07-11T16:24:47.505Z,7.78
2023-07-11T16:27:18.777Z,6.97
2023-07-11T16:29:48.172Z,7.40
2023-07-11T16:32:16.062Z,7.15
2023-07-11T16:34:45.114Z,7.93
2023-07-11T16:37:19.762Z,7.22
2023-07-11T16:39:50.543Z,8.40
2023-07-11T16:42:23.397Z,6.68
2023-07-11T16:44:50.745Z,7.85
2023-07-11T16:47:18.773Z,7.30
2023-07-11T16:49:50.145Z,6.82
2023-07-11T16:52:17.668Z,7.50
2023-07-11T16:54:48.363Z,6.75
2023-07-11T16:57:20.620Z,7.20
2023-07-11T16:59:47.956Z,6.93
2023-07-11T17:02:36.257Z,6.68
2023-07-11T17:05:03.986Z,6.47
2023-07-11T17:07:31.923Z,6.90
2023-07-11T17:09:59.306Z,6.70
2023-07-11T17:12:27.615Z,6.78
2023-07-11T17:14:55.013Z,6.93
2023-07-11T17:17:26.453Z,7.55
2023-07-11T17:29:19.140Z,7.25
2023-07-11T17:31:47.081Z,7.10
2023-07-11T17:34:19.050Z,6.80
2023-07-11T17:36:48.973Z,6.77
2023-07-11T17:39:22.507Z,7.00
2023-07-11T17:42:15.866Z,6.22
2023-07-11T17:44:45.680Z,6.38
2023-07-11T17:49:54.310Z,6.95
2023-07-11T17:52:30.452Z,6.50
2023-07-11T17:54:58.545Z,6.28
2023-07-11T17:57:33.532Z,6.07
2023-07-11T18:00:00.891Z,5.85
2023-07-11T18:02:38.284Z,6.30
2023-07-11T18:05:22.440Z,6.70
2023-07-11T18:07:50.853Z,6.57
2023-07-11T18:10:30.211Z,6.60
2023-07-11T18:13:09.520Z,6.88
2023-07-11T18:15:41.108Z,5.68
2023-07-11T18:18:32.843Z,5.75
2023-07-11T18:21:01.118Z,6.25
2023-07-11T18:23:28.765Z,6.40
2023-07-11T18:25:59.226Z,5.82
2023-07-11T18:28:26.794Z,6.20
2023-07-11T18:30:54.232Z,6.03
2023-07-11T18:33:22.484Z,5.75
2023-07-11T18:35:50.465Z,5.97
2023-07-11T18:38:21.928Z,5.78
2023-07-11T18:40:50.577Z,5.88
2023-07-11T18:43:17.945Z,6.00
2023-07-11T18:45:48.087Z,5.93
2023-07-11T18:48:16.180Z,6.53
2023-07-11T18:50:44.736Z,5.68
2023-07-11T18:53:12.144Z,6.10
2023-07-11T18:55:45.395Z,5.47
2023-07-11T18:58:13.503Z,5.68
2023-07-11T19:00:48.983Z,5.90
2023-07-11T19:03:18.634Z,5.28
2023-07-11T19:05:47.490Z,5.38
2023-07-11T19:08:16.000Z,5.57
2023-07-11T19:10:43.425Z,5.45
2023-07-11T19:13:10.766Z,6.00
2023-07-11T19:15:40.645Z,5.88
2023-07-11T19:18:17.061Z,5.60
2023-07-11T19:20:44.482Z,5.10
2023-07-11T19:23:26.623Z,5.40
2023-07-11T19:25:55.793Z,5.73
2023-07-11T19:28:32.555Z,6.15
2023-07-11T19:31:04.473Z,5.57
2023-07-11T19:33:32.025Z,5.28
2023-07-11T19:36:00.587Z,5.70
2023-07-11T19:38:29.684Z,5.90
2023-07-11T19:40:57.366Z,5.90
2023-07-11T19:43:24.977Z,5.72
2023-07-11T19:45:56.821Z,5.32
2023-07-11T19:48:28.112Z,5.68
2023-07-11T19:50:58.228Z,6.07
2023-07-11T19:53:25.921Z,6.00
2023-07-11T19:55:54.902Z,5.93
2023-07-11T19:58:24.532Z,5.97
2023-07-11T20:00:55.840Z,5.85
2023-07-11T20:03:23.642Z,6.03
2023-07-11T20:05:51.228Z,6.03
2023-07-11T20:08:21.342Z,5.95
2023-07-11T20:10:51.394Z,5.25
2023-07-11T20:13:20.815Z,5.35
2023-07-11T20:15:54.965Z,5.80
2023-07-11T20:18:27.716Z,5.45
2023-07-11T20:20:58.948Z,6.10
2023-07-11T20:23:27.712Z,5.28
2023-07-11T20:25:58.077Z,5.57
2023-07-11T20:28:25.499Z,5.50
2023-07-11T20:30:56.378Z,5.25
2023-07-11T20:33:24.013Z,5.55
2023-07-11T20:35:54.162Z,6.18
2023-07-11T20:38:23.565Z,5.68
2023-07-11T20:40:51.673Z,5.40
2023-07-11T20:43:19.709Z,4.93
2023-07-11T20:45:49.672Z,5.22
2023-07-11T20:48:23.160Z,5.85
2023-07-11T20:50:52.161Z,5.00
2023-07-11T20:53:22.801Z,5.70
2023-07-11T20:55:53.520Z,6.10
2023-07-11T20:58:20.802Z,5.07
2023-07-11T21:00:49.801Z,5.65
2023-07-11T21:03:19.471Z,5.28
2023-07-11T21:05:49.151Z,5.03
2023-07-11T21:08:32.643Z,5.05
2023-07-11T21:11:03.732Z,5.53
2023-07-11T21:13:31.080Z,5.40
2023-07-11T21:15:58.557Z,5.93
2023-07-11T21:18:27.005Z,5.68
2023-07-11T21:20:55.986Z,5.05
2023-07-11T21:23:23.823Z,5.07
2023-07-11T21:25:51.253Z,5.53
2023-07-11T21:28:30.166Z,4.93
2023-07-11T21:31:04.057Z,4.63
2023-07-11T21:33:32.709Z,5.22
2023-07-11T21:36:02.174Z,5.07
2023-07-11T21:38:31.779Z,5.15
2023-07-11T21:41:00.730Z,4.95
2023-07-11T21:43:28.093Z,5.15
2023-07-11T21:45:58.136Z,4.22
2023-07-11T21:48:27.701Z,5.20
2023-07-11T21:50:59.598Z,4.90
2023-07-11T21:53:29.922Z,5.10
2023-07-11T21:56:00.405Z,4.70
2023-07-11T21:58:27.853Z,5.00
2023-07-11T22:00:55.330Z,5.00
2023-07-11T22:03:25.818Z,4.40
2023-07-11T22:05:56.452Z,4.45
2023-07-11T22:08:33.043Z,4.32
2023-07-11T22:11:01.955Z,4.45
2023-07-11T22:13:32.022Z,4.70
2023-07-11T22:15:59.537Z,5.18
2023-07-11T22:18:30.082Z,5.43
2023-07-11T22:20:58.349Z,4.07
2023-07-11T22:23:25.702Z,5.07
2023-07-11T22:25:53.065Z,4.57
2023-07-11T22:28:23.113Z,5.28
2023-07-11T22:30:52.589Z,5.45
2023-07-11T22:33:20.181Z,5.35
2023-07-11T22:35:47.561Z,5.00
2023-07-11T22:38:16.784Z,4.32
2023-07-11T22:40:46.064Z,5.10
2023-07-11T22:43:20.180Z,5.13
2023-07-11T22:45:52.584Z,4.75
2023-07-11T22:48:23.044Z,4.60
2023-07-11T22:50:55.839Z,4.97
2023-07-11T22:53:32.553Z,5.45
2023-07-11T22:56:06.880Z,4.68
2023-07-11T22:58:36.252Z,4.32
2023-07-11T23:01:07.295Z,5.25
2023-07-11T23:03:35.622Z,5.00
2023-07-11T23:06:20.627Z,4.53
2023-07-11T23:08:49.501Z,4.35
2023-07-11T23:11:17.791Z,4.65
2023-07-11T23:13:46.206Z,4.50
2023-07-11T23:16:29.807Z,4.63
2023-07-11T23:19:06.294Z,4.78
2023-07-11T23:21:34.111Z,4.93
2023-07-11T23:24:02.103Z,4.60
2023-07-11T23:26:30.134Z,5.00
2023-07-11T23:28:57.705Z,4.63
2023-07-11T23:31:25.907Z,4.35
2023-07-11T23:33:53.621Z,4.65
2023-07-11T23:36:24.022Z,4.45
2023-07-11T23:38:53.602Z,3.92
2023-07-11T23:41:21.086Z,4.05
2023-07-11T23:43:49.000Z,4.35
2023-07-11T23:46:27.103Z,4.60
2023-07-11T23:48:55.274Z,4.28
2023-07-11T23:51:24.734Z,4.47
2023-07-11T23:53:52.805Z,4.70
2023-07-11T23:56:25.691Z,4.78
2023-07-11T23:58:53.830Z,4.25
